sensor_id;sensor_type;location;lat;lon;timestamp;P1;durP1;ratioP1;P2;durP2;ratioP2
41921;SDS011;27609;51.002;5.354;2023-01-08T00:00:51;5.05;;;2.50;;
41921;SDS011;27609;51.002;5.354;2023-01-08T00:03:17;4.45;;;3.17;;
41921;SDS011;27609;51.002;5.354;2023-01-08T00:05:42;3.90;;;2.45;;
41921;SDS011;27609;51.002;5.354;2023-01-08T00:08:08;4.30;;;2.50;;
41921;SDS011;27609;51.002;5.354;2023-01-08T00:10:35;5.25;;;2.55;;
41921;SDS011;27609;51.002;5.354;2023-01-08T00:13:01;6.30;;;3.05;;
41921;SDS011;27609;51.002;5.354;2023-01-08T00:15:27;3.80;;;2.50;;
41921;SDS011;27609;51.002;5.354;2023-01-08T00:17:54;6.10;;;2.92;;
41921;SDS011;27609;51.002;5.354;2023-01-08T00:20:20;6.38;;;3.00;;
41921;SDS011;27609;51.002;5.354;2023-01-08T00:22:49;6.72;;;2.90;;
41921;SDS011;27609;51.002;5.354;2023-01-08T00:25:15;6.97;;;3.08;;
41921;SDS011;27609;51.002;5.354;2023-01-08T00:27:42;4.70;;;2.70;;
41921;SDS011;27609;51.002;5.354;2023-01-08T00:30:09;5.10;;;2.45;;
41921;SDS011;27609;51.002;5.354;2023-01-08T00:32:35;8.02;;;2.97;;
41921;SDS011;27609;51.002;5.354;2023-01-08T00:35:00;4.95;;;3.22;;
41921;SDS011;27609;51.002;5.354;2023-01-08T00:37:26;6.70;;;2.88;;
41921;SDS011;27609;51.002;5.354;2023-01-08T00:39:52;6.03;;;2.20;;
41921;SDS011;27609;51.002;5.354;2023-01-08T00:42:18;4.72;;;2.78;;
41921;SDS011;27609;51.002;5.354;2023-01-08T00:44:44;8.68;;;3.10;;
41921;SDS011;27609;51.002;5.354;2023-01-08T00:47:09;5.82;;;3.58;;
41921;SDS011;27609;51.002;5.354;2023-01-08T00:49:35;4.95;;;3.45;;
41921;SDS011;27609;51.002;5.354;2023-01-08T00:52:01;4.82;;;2.30;;
41921;SDS011;27609;51.002;5.354;2023-01-08T00:54:26;7.70;;;3.15;;
41921;SDS011;27609;51.002;5.354;2023-01-08T00:56:53;4.13;;;2.92;;
41921;SDS011;27609;51.002;5.354;2023-01-08T00:59:19;5.80;;;2.83;;
41921;SDS011;27609;51.002;5.354;2023-01-08T01:01:45;5.43;;;2.75;;
41921;SDS011;27609;51.002;5.354;2023-01-08T01:04:12;4.88;;;2.70;;
41921;SDS011;27609;51.002;5.354;2023-01-08T01:06:39;6.35;;;3.05;;
41921;SDS011;27609;51.002;5.354;2023-01-08T01:09:05;5.93;;;3.03;;
41921;SDS011;27609;51.002;5.354;2023-01-08T01:11:31;5.95;;;3.30;;
41921;SDS011;27609;51.002;5.354;2023-01-08T01:13:56;5.63;;;2.90;;
41921;SDS011;27609;51.002;5.354;2023-01-08T01:16:22;3.00;;;1.95;;
41921;SDS011;27609;51.002;5.354;2023-01-08T01:18:49;4.05;;;2.80;;
41921;SDS011;27609;51.002;5.354;2023-01-08T01:21:23;6.63;;;2.50;;
41921;SDS011;27609;51.002;5.354;2023-01-08T01:23:54;4.93;;;2.92;;
41921;SDS011;27609;51.002;5.354;2023-01-08T01:26:24;4.82;;;2.50;;
41921;SDS011;27609;51.002;5.354;2023-01-08T01:28:51;5.22;;;2.28;;
41921;SDS011;27609;51.002;5.354;2023-01-08T01:31:18;3.45;;;2.95;;
41921;SDS011;27609;51.002;5.354;2023-01-08T01:33:45;6.97;;;2.45;;
41921;SDS011;27609;51.002;5.354;2023-01-08T01:36:11;4.65;;;2.78;;
41921;SDS011;27609;51.002;5.354;2023-01-08T01:38:38;5.57;;;3.20;;
41921;SDS011;27609;51.002;5.354;2023-01-08T01:41:10;7.60;;;2.67;;
41921;SDS011;27609;51.002;5.354;2023-01-08T01:43:48;2.45;;;1.80;;
41921;SDS011;27609;51.002;5.354;2023-01-08T01:48:43;7.35;;;2.97;;
41921;SDS011;27609;51.002;5.354;2023-01-08T01:51:10;4.57;;;2.47;;
41921;SDS011;27609;51.002;5.354;2023-01-08T01:53:36;3.92;;;2.60;;
41921;SDS011;27609;51.002;5.354;2023-01-08T01:56:02;6.57;;;2.35;;
41921;SDS011;27609;51.002;5.354;2023-01-08T01:58:30;3.35;;;2.35;;
41921;SDS011;27609;51.002;5.354;2023-01-08T02:00:57;4.88;;;2.85;;
41921;SDS011;27609;51.002;5.354;2023-01-08T02:03:31;2.78;;;2.13;;
41921;SDS011;27609;51.002;5.354;2023-01-08T02:06:15;3.25;;;2.40;;
41921;SDS011;27609;51.002;5.354;2023-01-08T02:11:51;5.57;;;2.58;;
41921;SDS011;27609;51.002;5.354;2023-01-08T02:14:57;6.55;;;2.50;;
41921;SDS011;27609;51.002;5.354;2023-01-08T02:17:49;3.38;;;2.40;;
41921;SDS011;27609;51.002;5.354;2023-01-08T02:20:18;5.43;;;2.60;;
41921;SDS011;27609;51.002;5.354;2023-01-08T02:28:00;6.30;;;2.80;;
41921;SDS011;27609;51.002;5.354;2023-01-08T02:30:32;4.47;;;3.22;;
41921;SDS011;27609;51.002;5.354;2023-01-08T02:32:58;6.50;;;3.20;;
41921;SDS011;27609;51.002;5.354;2023-01-08T02:35:29;6.72;;;2.88;;
41921;SDS011;27609;51.002;5.354;2023-01-08T02:38:10;4.30;;;2.40;;
41921;SDS011;27609;51.002;5.354;2023-01-08T02:40:45;2.80;;;2.05;;
41921;SDS011;27609;51.002;5.354;2023-01-08T02:43:30;2.85;;;2.58;;
41921;SDS011;27609;51.002;5.354;2023-01-08T02:46:21;4.13;;;2.15;;
41921;SDS011;27609;51.002;5.354;2023-01-08T02:48:52;2.83;;;2.08;;
41921;SDS011;27609;51.002;5.354;2023-01-08T02:51:28;4.55;;;2.25;;
41921;SDS011;27609;51.002;5.354;2023-01-08T02:53:59;4.20;;;2.42;;
41921;SDS011;27609;51.002;5.354;2023-01-08T02:56:32;4.97;;;2.60;;
41921;SDS011;27609;51.002;5.354;2023-01-08T02:59:00;7.85;;;2.20;;
41921;SDS011;27609;51.002;5.354;2023-01-08T03:01:28;5.03;;;2.05;;
41921;SDS011;27609;51.002;5.354;2023-01-08T03:04:05;10.13;;;2.80;;
41921;SDS011;27609;51.002;5.354;2023-01-08T03:06:35;4.47;;;2.28;;
41921;SDS011;27609;51.002;5.354;2023-01-08T03:09:02;6.00;;;2.15;;
41921;SDS011;27609;51.002;5.354;2023-01-08T03:11:30;5.55;;;2.20;;
41921;SDS011;27609;51.002;5.354;2023-01-08T03:14:24;4.57;;;2.10;;
41921;SDS011;27609;51.002;5.354;2023-01-08T03:17:00;3.65;;;1.98;;
41921;SDS011;27609;51.002;5.354;2023-01-08T03:19:39;3.55;;;2.45;;
41921;SDS011;27609;51.002;5.354;2023-01-08T03:22:09;5.55;;;2.45;;
41921;SDS011;27609;51.002;5.354;2023-01-08T03:24:38;4.63;;;2.63;;
41921;SDS011;27609;51.002;5.354;2023-01-08T03:27:08;6.32;;;2.35;;
41921;SDS011;27609;51.002;5.354;2023-01-08T03:29:38;3.50;;;2.00;;
41921;SDS011;27609;51.002;5.354;2023-01-08T03:32:05;2.78;;;1.83;;
41921;SDS011;27609;51.002;5.354;2023-01-08T03:34:35;5.28;;;2.60;;
41921;SDS011;27609;51.002;5.354;2023-01-08T03:37:03;2.63;;;1.80;;
41921;SDS011;27609;51.002;5.354;2023-01-08T03:39:33;3.45;;;2.10;;
41921;SDS011;27609;51.002;5.354;2023-01-08T03:42:21;4.72;;;1.77;;
41921;SDS011;27609;51.002;5.354;2023-01-08T03:44:47;3.70;;;2.00;;
41921;SDS011;27609;51.002;5.354;2023-01-08T03:47:13;3.08;;;2.00;;
41921;SDS011;27609;51.002;5.354;2023-01-08T03:49:39;3.20;;;2.40;;
41921;SDS011;27609;51.002;5.354;2023-01-08T03:52:07;4.40;;;1.95;;
41921;SDS011;27609;51.002;5.354;2023-01-08T03:54:34;2.85;;;1.70;;
41921;SDS011;27609;51.002;5.354;2023-01-08T03:57:00;3.95;;;1.60;;
41921;SDS011;27609;51.002;5.354;2023-01-08T03:59:26;2.15;;;1.88;;
41921;SDS011;27609;51.002;5.354;2023-01-08T04:01:52;3.60;;;2.40;;
41921;SDS011;27609;51.002;5.354;2023-01-08T04:04:18;9.57;;;1.67;;
41921;SDS011;27609;51.002;5.354;2023-01-08T04:06:44;3.97;;;1.73;;
41921;SDS011;27609;51.002;5.354;2023-01-08T04:09:09;2.45;;;1.55;;
41921;SDS011;27609;51.002;5.354;2023-01-08T04:11:35;4.88;;;1.75;;
41921;SDS011;27609;51.002;5.354;2023-01-08T04:14:01;4.85;;;2.17;;
41921;SDS011;27609;51.002;5.354;2023-01-08T04:16:26;4.55;;;1.80;;
41921;SDS011;27609;51.002;5.354;2023-01-08T04:18:52;1.30;;;1.20;;
41921;SDS011;27609;51.002;5.354;2023-01-08T04:21:18;3.15;;;1.85;;
41921;SDS011;27609;51.002;5.354;2023-01-08T04:23:44;2.80;;;1.40;;
41921;SDS011;27609;51.002;5.354;2023-01-08T04:26:09;3.95;;;1.42;;
41921;SDS011;27609;51.002;5.354;2023-01-08T04:28:35;3.28;;;1.13;;
41921;SDS011;27609;51.002;5.354;2023-01-08T04:31:05;4.72;;;1.90;;
41921;SDS011;27609;51.002;5.354;2023-01-08T04:33:31;2.55;;;1.23;;
41921;SDS011;27609;51.002;5.354;2023-01-08T04:35:57;2.55;;;1.80;;
41921;SDS011;27609;51.002;5.354;2023-01-08T04:38:22;3.65;;;1.83;;
41921;SDS011;27609;51.002;5.354;2023-01-08T04:40:48;2.33;;;1.00;;
41921;SDS011;27609;51.002;5.354;2023-01-08T04:43:14;3.33;;;0.93;;
41921;SDS011;27609;51.002;5.354;2023-01-08T04:45:39;3.30;;;1.15;;
41921;SDS011;27609;51.002;5.354;2023-01-08T04:48:05;2.85;;;1.00;;
41921;SDS011;27609;51.002;5.354;2023-01-08T04:50:32;2.95;;;0.90;;
41921;SDS011;27609;51.002;5.354;2023-01-08T04:52:57;5.50;;;1.20;;
41921;SDS011;27609;51.002;5.354;2023-01-08T04:55:23;4.35;;;1.25;;
41921;SDS011;27609;51.002;5.354;2023-01-08T04:57:49;4.68;;;1.05;;
41921;SDS011;27609;51.002;5.354;2023-01-08T05:00:15;2.40;;;0.73;;
41921;SDS011;27609;51.002;5.354;2023-01-08T05:02:41;6.10;;;1.33;;
41921;SDS011;27609;51.002;5.354;2023-01-08T05:05:06;5.80;;;1.45;;
41921;SDS011;27609;51.002;5.354;2023-01-08T05:07:32;6.47;;;0.90;;
41921;SDS011;27609;51.002;5.354;2023-01-08T05:09:58;7.20;;;1.02;;
41921;SDS011;27609;51.002;5.354;2023-01-08T05:12:23;6.18;;;1.63;;
41921;SDS011;27609;51.002;5.354;2023-01-08T05:14:49;2.58;;;0.68;;
41921;SDS011;27609;51.002;5.354;2023-01-08T05:17:15;4.50;;;1.30;;
41921;SDS011;27609;51.002;5.354;2023-01-08T05:19:40;5.32;;;1.00;;
41921;SDS011;27609;51.002;5.354;2023-01-08T05:22:06;4.63;;;1.10;;
41921;SDS011;27609;51.002;5.354;2023-01-08T05:24:31;3.53;;;0.63;;
41921;SDS011;27609;51.002;5.354;2023-01-08T05:26:57;5.85;;;0.50;;
41921;SDS011;27609;51.002;5.354;2023-01-08T05:29:23;11.60;;;1.13;;
41921;SDS011;27609;51.002;5.354;2023-01-08T05:31:48;7.05;;;1.38;;
41921;SDS011;27609;51.002;5.354;2023-01-08T05:34:14;14.02;;;1.13;;
41921;SDS011;27609;51.002;5.354;2023-01-08T05:36:39;5.60;;;0.47;;
41921;SDS011;27609;51.002;5.354;2023-01-08T05:39:05;2.22;;;0.68;;
41921;SDS011;27609;51.002;5.354;2023-01-08T05:41:31;12.07;;;0.95;;
41921;SDS011;27609;51.002;5.354;2023-01-08T05:43:56;2.50;;;0.63;;
41921;SDS011;27609;51.002;5.354;2023-01-08T05:46:22;10.35;;;0.82;;
41921;SDS011;27609;51.002;5.354;2023-01-08T05:48:47;2.97;;;0.88;;
41921;SDS011;27609;51.002;5.354;2023-01-08T05:51:13;4.57;;;0.90;;
41921;SDS011;27609;51.002;5.354;2023-01-08T05:53:39;7.35;;;1.13;;
41921;SDS011;27609;51.002;5.354;2023-01-08T05:56:06;3.65;;;0.77;;
41921;SDS011;27609;51.002;5.354;2023-01-08T05:58:32;3.97;;;0.50;;
41921;SDS011;27609;51.002;5.354;2023-01-08T06:01:03;3.17;;;0.57;;
41921;SDS011;27609;51.002;5.354;2023-01-08T06:03:37;4.13;;;0.95;;
41921;SDS011;27609;51.002;5.354;2023-01-08T06:06:04;10.23;;;0.85;;
41921;SDS011;27609;51.002;5.354;2023-01-08T06:08:31;5.15;;;0.82;;
41921;SDS011;27609;51.002;5.354;2023-01-08T06:10:58;2.92;;;0.60;;
41921;SDS011;27609;51.002;5.354;2023-01-08T06:13:25;4.50;;;0.50;;
41921;SDS011;27609;51.002;5.354;2023-01-08T06:15:51;9.23;;;1.95;;
41921;SDS011;27609;51.002;5.354;2023-01-08T06:18:16;4.65;;;0.68;;
41921;SDS011;27609;51.002;5.354;2023-01-08T06:20:42;5.05;;;0.88;;
41921;SDS011;27609;51.002;5.354;2023-01-08T06:23:08;9.18;;;1.80;;
41921;SDS011;27609;51.002;5.354;2023-01-08T06:25:34;2.83;;;0.70;;
41921;SDS011;27609;51.002;5.354;2023-01-08T06:28:00;3.63;;;0.50;;
41921;SDS011;27609;51.002;5.354;2023-01-08T06:30:26;3.05;;;0.50;;
41921;SDS011;27609;51.002;5.354;2023-01-08T06:32:55;3.33;;;0.60;;
41921;SDS011;27609;51.002;5.354;2023-01-08T06:35:22;6.05;;;1.25;;
41921;SDS011;27609;51.002;5.354;2023-01-08T06:37:47;4.93;;;0.70;;
41921;SDS011;27609;51.002;5.354;2023-01-08T06:40:13;4.78;;;0.82;;
41921;SDS011;27609;51.002;5.354;2023-01-08T06:42:39;7.70;;;0.95;;
41921;SDS011;27609;51.002;5.354;2023-01-08T06:45:05;11.55;;;1.35;;
41921;SDS011;27609;51.002;5.354;2023-01-08T06:47:31;5.25;;;1.20;;
41921;SDS011;27609;51.002;5.354;2023-01-08T06:49:57;6.05;;;1.00;;
41921;SDS011;27609;51.002;5.354;2023-01-08T06:52:23;5.97;;;0.68;;
41921;SDS011;27609;51.002;5.354;2023-01-08T06:54:49;4.95;;;0.95;;
41921;SDS011;27609;51.002;5.354;2023-01-08T06:57:15;9.63;;;0.98;;
41921;SDS011;27609;51.002;5.354;2023-01-08T06:59:40;4.93;;;1.10;;
41921;SDS011;27609;51.002;5.354;2023-01-08T07:02:09;4.88;;;0.90;;
41921;SDS011;27609;51.002;5.354;2023-01-08T07:04:38;9.32;;;1.17;;
41921;SDS011;27609;51.002;5.354;2023-01-08T07:07:04;5.25;;;1.40;;
41921;SDS011;27609;51.002;5.354;2023-01-08T07:09:29;4.70;;;1.00;;
41921;SDS011;27609;51.002;5.354;2023-01-08T07:11:55;8.38;;;2.40;;
41921;SDS011;27609;51.002;5.354;2023-01-08T07:14:21;8.88;;;1.55;;
41921;SDS011;27609;51.002;5.354;2023-01-08T07:16:46;8.50;;;1.00;;
41921;SDS011;27609;51.002;5.354;2023-01-08T07:19:12;9.30;;;1.25;;
41921;SDS011;27609;51.002;5.354;2023-01-08T07:21:37;6.97;;;0.95;;
41921;SDS011;27609;51.002;5.354;2023-01-08T07:24:03;4.82;;;1.50;;
41921;SDS011;27609;51.002;5.354;2023-01-08T07:26:30;6.05;;;1.75;;
41921;SDS011;27609;51.002;5.354;2023-01-08T07:28:55;12.93;;;1.20;;
41921;SDS011;27609;51.002;5.354;2023-01-08T07:31:21;4.85;;;0.95;;
41921;SDS011;27609;51.002;5.354;2023-01-08T07:33:47;7.88;;;1.30;;
41921;SDS011;27609;51.002;5.354;2023-01-08T07:36:12;8.85;;;1.08;;
41921;SDS011;27609;51.002;5.354;2023-01-08T07:38:39;5.10;;;1.15;;
41921;SDS011;27609;51.002;5.354;2023-01-08T07:41:05;7.90;;;1.33;;
41921;SDS011;27609;51.002;5.354;2023-01-08T07:43:31;4.60;;;0.90;;
41921;SDS011;27609;51.002;5.354;2023-01-08T07:45:57;5.55;;;1.48;;
41921;SDS011;27609;51.002;5.354;2023-01-08T07:48:25;9.85;;;1.73;;
41921;SDS011;27609;51.002;5.354;2023-01-08T07:50:51;5.10;;;1.15;;
41921;SDS011;27609;51.002;5.354;2023-01-08T07:53:16;5.53;;;0.85;;
41921;SDS011;27609;51.002;5.354;2023-01-08T07:55:42;10.00;;;1.50;;
41921;SDS011;27609;51.002;5.354;2023-01-08T07:58:08;4.63;;;0.85;;
41921;SDS011;27609;51.002;5.354;2023-01-08T08:00:35;10.32;;;1.20;;
41921;SDS011;27609;51.002;5.354;2023-01-08T08:03:01;7.63;;;1.77;;
41921;SDS011;27609;51.002;5.354;2023-01-08T08:05:28;11.45;;;2.20;;
41921;SDS011;27609;51.002;5.354;2023-01-08T08:07:54;15.95;;;2.13;;
41921;SDS011;27609;51.002;5.354;2023-01-08T08:10:19;7.05;;;1.02;;
41921;SDS011;27609;51.002;5.354;2023-01-08T08:12:45;13.82;;;1.38;;
41921;SDS011;27609;51.002;5.354;2023-01-08T08:15:11;7.45;;;1.10;;
41921;SDS011;27609;51.002;5.354;2023-01-08T08:17:36;7.32;;;1.50;;
41921;SDS011;27609;51.002;5.354;2023-01-08T08:20:02;10.05;;;1.55;;
41921;SDS011;27609;51.002;5.354;2023-01-08T08:22:28;9.93;;;1.25;;
41921;SDS011;27609;51.002;5.354;2023-01-08T08:24:54;7.55;;;1.40;;
41921;SDS011;27609;51.002;5.354;2023-01-08T08:27:20;7.50;;;1.23;;
41921;SDS011;27609;51.002;5.354;2023-01-08T08:29:46;4.60;;;0.75;;
41921;SDS011;27609;51.002;5.354;2023-01-08T08:32:12;11.45;;;1.08;;
41921;SDS011;27609;51.002;5.354;2023-01-08T08:34:38;9.63;;;1.25;;
41921;SDS011;27609;51.002;5.354;2023-01-08T08:37:03;8.07;;;1.33;;
41921;SDS011;27609;51.002;5.354;2023-01-08T08:39:29;6.63;;;1.70;;
41921;SDS011;27609;51.002;5.354;2023-01-08T08:41:54;6.60;;;1.40;;
41921;SDS011;27609;51.002;5.354;2023-01-08T08:44:20;13.45;;;1.80;;
41921;SDS011;27609;51.002;5.354;2023-01-08T08:46:46;7.50;;;1.13;;
41921;SDS011;27609;51.002;5.354;2023-01-08T08:49:11;6.38;;;1.20;;
41921;SDS011;27609;51.002;5.354;2023-01-08T08:51:37;5.20;;;1.45;;
41921;SDS011;27609;51.002;5.354;2023-01-08T08:54:03;6.57;;;1.67;;
41921;SDS011;27609;51.002;5.354;2023-01-08T08:56:28;5.47;;;1.80;;
41921;SDS011;27609;51.002;5.354;2023-01-08T08:58:54;8.60;;;1.77;;
41921;SDS011;27609;51.002;5.354;2023-01-08T09:01:21;7.07;;;1.17;;
41921;SDS011;27609;51.002;5.354;2023-01-08T09:03:47;7.38;;;2.10;;
41921;SDS011;27609;51.002;5.354;2023-01-08T09:06:14;6.32;;;1.90;;
41921;SDS011;27609;51.002;5.354;2023-01-08T09:08:40;5.18;;;1.60;;
41921;SDS011;27609;51.002;5.354;2023-01-08T09:11:06;4.43;;;1.70;;
41921;SDS011;27609;51.002;5.354;2023-01-08T09:13:31;12.20;;;2.03;;
41921;SDS011;27609;51.002;5.354;2023-01-08T09:15:57;6.40;;;1.60;;
41921;SDS011;27609;51.002;5.354;2023-01-08T09:18:23;6.97;;;2.00;;
41921;SDS011;27609;51.002;5.354;2023-01-08T09:20:49;18.40;;;2.08;;
41921;SDS011;27609;51.002;5.354;2023-01-08T09:23:15;4.68;;;1.50;;
41921;SDS011;27609;51.002;5.354;2023-01-08T09:25:40;13.13;;;2.17;;
41921;SDS011;27609;51.002;5.354;2023-01-08T09:28:07;4.07;;;1.17;;
41921;SDS011;27609;51.002;5.354;2023-01-08T09:30:36;9.98;;;1.77;;
41921;SDS011;27609;51.002;5.354;2023-01-08T09:33:04;6.78;;;1.70;;
41921;SDS011;27609;51.002;5.354;2023-01-08T09:35:30;6.95;;;2.13;;
41921;SDS011;27609;51.002;5.354;2023-01-08T09:37:57;3.75;;;1.40;;
41921;SDS011;27609;51.002;5.354;2023-01-08T09:40:25;12.65;;;2.20;;
41921;SDS011;27609;51.002;5.354;2023-01-08T09:43:13;5.32;;;1.20;;
41921;SDS011;27609;51.002;5.354;2023-01-08T09:45:43;3.25;;;1.23;;
41921;SDS011;27609;51.002;5.354;2023-01-08T09:48:13;4.03;;;1.20;;
41921;SDS011;27609;51.002;5.354;2023-01-08T09:50:41;6.47;;;1.20;;
41921;SDS011;27609;51.002;5.354;2023-01-08T09:53:09;4.43;;;2.15;;
41921;SDS011;27609;51.002;5.354;2023-01-08T09:55:38;5.93;;;2.47;;
41921;SDS011;27609;51.002;5.354;2023-01-08T09:58:07;5.80;;;2.30;;
41921;SDS011;27609;51.002;5.354;2023-01-08T10:00:57;3.72;;;1.48;;
41921;SDS011;27609;51.002;5.354;2023-01-08T10:03:24;11.57;;;1.70;;
41921;SDS011;27609;51.002;5.354;2023-01-08T10:05:55;2.90;;;1.20;;
41921;SDS011;27609;51.002;5.354;2023-01-08T10:08:21;1.40;;;0.80;;
41921;SDS011;27609;51.002;5.354;2023-01-08T10:10:46;3.72;;;0.50;;
41921;SDS011;27609;51.002;5.354;2023-01-08T10:13:12;1.90;;;0.45;;
41921;SDS011;27609;51.002;5.354;2023-01-08T10:15:39;0.98;;;0.85;;
41921;SDS011;27609;51.002;5.354;2023-01-08T10:18:06;3.00;;;0.68;;
41921;SDS011;27609;51.002;5.354;2023-01-08T10:20:36;2.65;;;0.45;;
41921;SDS011;27609;51.002;5.354;2023-01-08T10:23:07;2.33;;;0.50;;
41921;SDS011;27609;51.002;5.354;2023-01-08T10:28:27;3.20;;;1.52;;
41921;SDS011;27609;51.002;5.354;2023-01-08T10:31:04;0.70;;;0.50;;
41921;SDS011;27609;51.002;5.354;2023-01-08T10:33:45;3.38;;;0.70;;
41921;SDS011;27609;51.002;5.354;2023-01-08T10:36:14;3.30;;;0.82;;
41921;SDS011;27609;51.002;5.354;2023-01-08T10:38:53;2.25;;;0.95;;
41921;SDS011;27609;51.002;5.354;2023-01-08T10:41:23;4.60;;;1.05;;
41921;SDS011;27609;51.002;5.354;2023-01-08T10:43:53;4.95;;;1.08;;
41921;SDS011;27609;51.002;5.354;2023-01-08T10:46:23;5.60;;;1.35;;
41921;SDS011;27609;51.002;5.354;2023-01-08T10:48:55;7.30;;;1.75;;
41921;SDS011;27609;51.002;5.354;2023-01-08T10:51:25;7.35;;;1.55;;
41921;SDS011;27609;51.002;5.354;2023-01-08T10:53:53;3.00;;;1.38;;
41921;SDS011;27609;51.002;5.354;2023-01-08T10:56:27;3.78;;;1.50;;
41921;SDS011;27609;51.002;5.354;2023-01-08T10:58:55;3.65;;;1.10;;
41921;SDS011;27609;51.002;5.354;2023-01-08T11:01:21;4.40;;;1.05;;
41921;SDS011;27609;51.002;5.354;2023-01-08T11:03:50;1.88;;;0.80;;
41921;SDS011;27609;51.002;5.354;2023-01-08T11:06:39;1.75;;;0.70;;
41921;SDS011;27609;51.002;5.354;2023-01-08T11:09:44;2.70;;;0.90;;
41921;SDS011;27609;51.002;5.354;2023-01-08T11:12:28;3.53;;;0.90;;
41921;SDS011;27609;51.002;5.354;2023-01-08T11:15:00;1.73;;;0.73;;
41921;SDS011;27609;51.002;5.354;2023-01-08T11:17:28;1.55;;;0.50;;
41921;SDS011;27609;51.002;5.354;2023-01-08T11:19:53;2.17;;;0.80;;
41921;SDS011;27609;51.002;5.354;2023-01-08T11:22:21;2.00;;;0.73;;
41921;SDS011;27609;51.002;5.354;2023-01-08T11:24:48;3.15;;;0.50;;
41921;SDS011;27609;51.002;5.354;2023-01-08T11:27:15;1.13;;;0.40;;
41921;SDS011;27609;51.002;5.354;2023-01-08T11:29:55;2.78;;;0.63;;
41921;SDS011;27609;51.002;5.354;2023-01-08T11:37:34;2.40;;;0.55;;
41921;SDS011;27609;51.002;5.354;2023-01-08T11:40:10;1.73;;;0.30;;
41921;SDS011;27609;51.002;5.354;2023-01-08T11:42:46;0.65;;;0.38;;
41921;SDS011;27609;51.002;5.354;2023-01-08T11:48:08;4.05;;;0.85;;
41921;SDS011;27609;51.002;5.354;2023-01-08T12:01:42;6.22;;;1.08;;
41921;SDS011;27609;51.002;5.354;2023-01-08T12:07:21;1.45;;;0.70;;
41921;SDS011;27609;51.002;5.354;2023-01-08T12:09:57;6.38;;;1.13;;
41921;SDS011;27609;51.002;5.354;2023-01-08T12:12:44;2.40;;;1.27;;
41921;SDS011;27609;51.002;5.354;2023-01-08T12:15:33;3.22;;;1.08;;
41921;SDS011;27609;51.002;5.354;2023-01-08T12:21:12;2.95;;;1.20;;
41921;SDS011;27609;51.002;5.354;2023-01-08T12:32:23;4.68;;;1.33;;
41921;SDS011;27609;51.002;5.354;2023-01-08T12:40:21;2.33;;;0.60;;
41921;SDS011;27609;51.002;5.354;2023-01-08T12:42:56;4.40;;;0.65;;
41921;SDS011;27609;51.002;5.354;2023-01-08T12:45:28;4.60;;;0.88;;
41921;SDS011;27609;51.002;5.354;2023-01-08T12:48:03;6.05;;;1.20;;
41921;SDS011;27609;51.002;5.354;2023-01-08T13:04:02;2.55;;;1.05;;
41921;SDS011;27609;51.002;5.354;2023-01-08T13:06:28;4.18;;;0.77;;
41921;SDS011;27609;51.002;5.354;2023-01-08T13:08:55;5.20;;;0.73;;
41921;SDS011;27609;51.002;5.354;2023-01-08T13:11:33;3.03;;;1.00;;
41921;SDS011;27609;51.002;5.354;2023-01-08T13:16:30;3.03;;;1.13;;
41921;SDS011;27609;51.002;5.354;2023-01-08T13:19:22;4.95;;;0.90;;
41921;SDS011;27609;51.002;5.354;2023-01-08T13:21:53;1.63;;;1.00;;
41921;SDS011;27609;51.002;5.354;2023-01-08T13:24:28;6.82;;;1.48;;
41921;SDS011;27609;51.002;5.354;2023-01-08T13:26:56;4.82;;;1.77;;
41921;SDS011;27609;51.002;5.354;2023-01-08T13:29:43;4.05;;;1.13;;
41921;SDS011;27609;51.002;5.354;2023-01-08T13:32:33;3.13;;;0.73;;
41921;SDS011;27609;51.002;5.354;2023-01-08T13:37:43;8.27;;;1.48;;
41921;SDS011;27609;51.002;5.354;2023-01-08T13:43:01;3.03;;;1.08;;
41921;SDS011;27609;51.002;5.354;2023-01-08T13:45:29;2.28;;;1.25;;
41921;SDS011;27609;51.002;5.354;2023-01-08T13:47:55;4.20;;;1.02;;
41921;SDS011;27609;51.002;5.354;2023-01-08T13:50:22;5.20;;;1.02;;
41921;SDS011;27609;51.002;5.354;2023-01-08T13:52:57;7.43;;;1.40;;
41921;SDS011;27609;51.002;5.354;2023-01-08T13:58:00;6.57;;;1.50;;
41921;SDS011;27609;51.002;5.354;2023-01-08T14:03:17;6.80;;;1.02;;
41921;SDS011;27609;51.002;5.354;2023-01-08T14:05:51;2.78;;;0.80;;
41921;SDS011;27609;51.002;5.354;2023-01-08T14:08:28;5.68;;;0.85;;
41921;SDS011;27609;51.002;5.354;2023-01-08T14:10:54;6.80;;;1.20;;
41921;SDS011;27609;51.002;5.354;2023-01-08T14:13:21;1.17;;;0.43;;
41921;SDS011;27609;51.002;5.354;2023-01-08T14:15:54;4.13;;;0.98;;
41921;SDS011;27609;51.002;5.354;2023-01-08T14:18:25;4.53;;;0.95;;
41921;SDS011;27609;51.002;5.354;2023-01-08T14:20:52;2.40;;;0.73;;
41921;SDS011;27609;51.002;5.354;2023-01-08T14:23:29;3.70;;;0.77;;
41921;SDS011;27609;51.002;5.354;2023-01-08T14:26:00;1.92;;;0.63;;
41921;SDS011;27609;51.002;5.354;2023-01-08T14:28:29;3.45;;;0.80;;
41921;SDS011;27609;51.002;5.354;2023-01-08T14:30:55;6.18;;;1.10;;
41921;SDS011;27609;51.002;5.354;2023-01-08T14:33:32;4.95;;;0.60;;
41921;SDS011;27609;51.002;5.354;2023-01-08T14:35:59;3.40;;;0.82;;
41921;SDS011;27609;51.002;5.354;2023-01-08T14:38:26;5.65;;;1.48;;
41921;SDS011;27609;51.002;5.354;2023-01-08T14:43:39;7.78;;;0.90;;
41921;SDS011;27609;51.002;5.354;2023-01-08T14:46:11;4.53;;;1.00;;
41921;SDS011;27609;51.002;5.354;2023-01-08T14:48:49;3.38;;;0.95;;
41921;SDS011;27609;51.002;5.354;2023-01-08T14:51:26;1.77;;;0.77;;
41921;SDS011;27609;51.002;5.354;2023-01-08T14:56:28;2.25;;;0.68;;
41921;SDS011;27609;51.002;5.354;2023-01-08T14:58:56;3.35;;;0.80;;
41921;SDS011;27609;51.002;5.354;2023-01-08T15:01:24;3.25;;;1.33;;
41921;SDS011;27609;51.002;5.354;2023-01-08T15:04:03;6.90;;;1.10;;
41921;SDS011;27609;51.002;5.354;2023-01-08T15:06:47;1.02;;;0.50;;
41921;SDS011;27609;51.002;5.354;2023-01-08T15:11:50;2.40;;;1.08;;
41921;SDS011;27609;51.002;5.354;2023-01-08T15:14:39;3.70;;;1.23;;
41921;SDS011;27609;51.002;5.354;2023-01-08T15:17:09;5.82;;;1.02;;
41921;SDS011;27609;51.002;5.354;2023-01-08T15:19:55;4.60;;;1.10;;
41921;SDS011;27609;51.002;5.354;2023-01-08T15:22:26;4.88;;;0.93;;
41921;SDS011;27609;51.002;5.354;2023-01-08T15:25:01;7.30;;;0.68;;
41921;SDS011;27609;51.002;5.354;2023-01-08T15:27:28;2.95;;;1.00;;
41921;SDS011;27609;51.002;5.354;2023-01-08T15:30:01;4.28;;;0.80;;
41921;SDS011;27609;51.002;5.354;2023-01-08T15:32:29;3.17;;;0.70;;
41921;SDS011;27609;51.002;5.354;2023-01-08T15:35:01;2.92;;;0.98;;
41921;SDS011;27609;51.002;5.354;2023-01-08T15:37:37;2.08;;;0.90;;
41921;SDS011;27609;51.002;5.354;2023-01-08T15:40:03;2.38;;;0.65;;
41921;SDS011;27609;51.002;5.354;2023-01-08T15:42:30;4.97;;;0.77;;
41921;SDS011;27609;51.002;5.354;2023-01-08T15:45:17;6.30;;;1.48;;
41921;SDS011;27609;51.002;5.354;2023-01-08T15:47:45;3.33;;;0.70;;
41921;SDS011;27609;51.002;5.354;2023-01-08T15:50:10;2.72;;;0.70;;
41921;SDS011;27609;51.002;5.354;2023-01-08T15:52:37;5.97;;;1.00;;
41921;SDS011;27609;51.002;5.354;2023-01-08T15:55:04;2.15;;;0.65;;
41921;SDS011;27609;51.002;5.354;2023-01-08T15:57:31;4.43;;;1.48;;
41921;SDS011;27609;51.002;5.354;2023-01-08T15:59:57;9.40;;;1.25;;
41921;SDS011;27609;51.002;5.354;2023-01-08T16:02:23;2.65;;;0.90;;
41921;SDS011;27609;51.002;5.354;2023-01-08T16:04:52;7.03;;;0.90;;
41921;SDS011;27609;51.002;5.354;2023-01-08T16:07:19;3.40;;;1.13;;
41921;SDS011;27609;51.002;5.354;2023-01-08T16:09:45;3.78;;;1.15;;
41921;SDS011;27609;51.002;5.354;2023-01-08T16:12:11;3.42;;;1.25;;
41921;SDS011;27609;51.002;5.354;2023-01-08T16:14:37;1.50;;;0.90;;
41921;SDS011;27609;51.002;5.354;2023-01-08T16:17:03;3.17;;;0.93;;
41921;SDS011;27609;51.002;5.354;2023-01-08T16:19:30;4.85;;;1.15;;
41921;SDS011;27609;51.002;5.354;2023-01-08T16:21:56;9.18;;;0.80;;
41921;SDS011;27609;51.002;5.354;2023-01-08T16:24:22;10.95;;;1.55;;
41921;SDS011;27609;51.002;5.354;2023-01-08T16:26:48;6.50;;;1.00;;